sensor_id;sensor_type;location;lat;lon;timestamp;pressure;altitude;pressure_sealevel;temperature;humidity
54329;BME280;40710;51.120;13.136;2024-03-17T00:01:32;100112.88;;;7.88;58.41
54329;BME280;40710;51.120;13.136;2024-03-17T00:03:57;100113.38;;;7.99;58.72
54329;BME280;40710;51.120;13.136;2024-03-17T00:06:21;100107.59;;;8.18;58.19
54329;BME280;40710;51.120;13.136;2024-03-17T00:08:46;100113.00;;;7.83;58.64
54329;BME280;40710;51.120;13.136;2024-03-17T00:11:10;100105.03;;;8.16;57.85
54329;BME280;40710;51.120;13.136;2024-03-17T00:13:35;100106.63;;;8.20;58.00
54329;BME280;40710;51.120;13.136;2024-03-17T00:16:00;100112.66;;;7.94;58.53
54329;BME280;40710;51.120;13.136;2024-03-17T00:18:25;100125.19;;;7.84;58.51
54329;BME280;40710;51.120;13.136;2024-03-17T00:20:51;100116.25;;;7.91;59.00
54329;BME280;40710;51.120;13.136;2024-03-17T00:23:16;100113.88;;;7.84;59.05
54329;BME280;40710;51.120;13.136;2024-03-17T00:25:41;100120.75;;;7.56;59.11
54329;BME280;40710;51.120;13.136;2024-03-17T00:28:06;100125.06;;;7.59;59.44
54329;BME280;40710;51.120;13.136;2024-03-17T00:30:30;100117.41;;;7.81;58.79
54329;BME280;40710;51.120;13.136;2024-03-17T00:32:58;100112.59;;;7.67;58.65
54329;BME280;40710;51.120;13.136;2024-03-17T00:35:23;100116.88;;;7.70;59.30
54329;BME280;40710;51.120;13.136;2024-03-17T00:37:48;100113.59;;;7.93;58.73
54329;BME280;40710;51.120;13.136;2024-03-17T00:40:13;100114.94;;;7.76;58.84
54329;BME280;40710;51.120;13.136;2024-03-17T00:42:38;100118.44;;;7.46;59.49
54329;BME280;40710;51.120;13.136;2024-03-17T00:45:03;100112.66;;;7.64;59.32
54329;BME280;40710;51.120;13.136;2024-03-17T00:47:30;100106.88;;;7.84;58.50
54329;BME280;40710;51.120;13.136;2024-03-17T00:49:54;100098.09;;;8.43;56.94
54329;BME280;40710;51.120;13.136;2024-03-17T00:52:19;100104.19;;;8.16;57.38
54329;BME280;40710;51.120;13.136;2024-03-17T00:54:46;100114.41;;;7.65;58.76
54329;BME280;40710;51.120;13.136;2024-03-17T00:57:12;100119.81;;;7.59;58.93
54329;BME280;40710;51.120;13.136;2024-03-17T00:59:36;100127.72;;;7.57;59.25
54329;BME280;40710;51.120;13.136;2024-03-17T01:02:01;100116.28;;;7.60;59.01
54329;BME280;40710;51.120;13.136;2024-03-17T01:04:26;100116.38;;;7.87;58.62
54329;BME280;40710;51.120;13.136;2024-03-17T01:06:51;100115.09;;;7.72;59.02
54329;BME280;40710;51.120;13.136;2024-03-17T01:09:16;100122.16;;;7.68;58.93
54329;BME280;40710;51.120;13.136;2024-03-17T01:11:40;100129.75;;;7.13;60.01
54329;BME280;40710;51.120;13.136;2024-03-17T01:14:05;100122.56;;;7.54;59.99
54329;BME280;40710;51.120;13.136;2024-03-17T01:16:29;100132.25;;;6.85;60.44
54329;BME280;40710;51.120;13.136;2024-03-17T01:18:54;100124.31;;;6.90;60.88
54329;BME280;40710;51.120;13.136;2024-03-17T01:21:19;100111.59;;;7.42;59.64
54329;BME280;40710;51.120;13.136;2024-03-17T01:23:44;100110.88;;;7.66;58.75
54329;BME280;40710;51.120;13.136;2024-03-17T01:26:09;100113.88;;;7.54;59.80
54329;BME280;40710;51.120;13.136;2024-03-17T01:28:33;100109.03;;;7.40;58.98
54329;BME280;40710;51.120;13.136;2024-03-17T01:30:58;100106.19;;;7.78;58.23
54329;BME280;40710;51.120;13.136;2024-03-17T01:33:22;100117.88;;;7.34;59.35
54329;BME280;40710;51.120;13.136;2024-03-17T01:35:47;100107.34;;;7.67;58.71
54329;BME280;40710;51.120;13.136;2024-03-17T01:38:11;100115.03;;;7.44;58.92
54329;BME280;40710;51.120;13.136;2024-03-17T01:40:36;100113.25;;;7.44;59.09
54329;BME280;40710;51.120;13.136;2024-03-17T01:43:01;100118.66;;;7.07;59.45
54329;BME280;40710;51.120;13.136;2024-03-17T01:47:53;100106.72;;;7.29;59.87
54329;BME280;40710;51.120;13.136;2024-03-17T01:50:18;100099.88;;;7.55;58.72
54329;BME280;40710;51.120;13.136;2024-03-17T01:52:46;100112.13;;;7.53;58.46
54329;BME280;40710;51.120;13.136;2024-03-17T01:55:12;100115.91;;;7.43;59.30
54329;BME280;40710;51.120;13.136;2024-03-17T01:57:36;100112.09;;;7.23;59.16
54329;BME280;40710;51.120;13.136;2024-03-17T02:00:01;100126.53;;;7.05;60.40
54329;BME280;40710;51.120;13.136;2024-03-17T02:02:26;100116.63;;;7.48;58.89
54329;BME280;40710;51.120;13.136;2024-03-17T02:04:50;100113.31;;;7.72;58.36
54329;BME280;40710;51.120;13.136;2024-03-17T02:07:15;100116.38;;;7.26;58.65
54329;BME280;40710;51.120;13.136;2024-03-17T02:09:40;100110.72;;;7.41;59.00
54329;BME280;40710;51.120;13.136;2024-03-17T02:12:05;100110.50;;;6.85;59.94
54329;BME280;40710;51.120;13.136;2024-03-17T02:14:29;100115.84;;;7.13;59.70
54329;BME280;40710;51.120;13.136;2024-03-17T02:16:54;100104.56;;;7.44;58.93
54329;BME280;40710;51.120;13.136;2024-03-17T02:19:18;100111.25;;;7.54;58.78
54329;BME280;40710;51.120;13.136;2024-03-17T02:21:43;100102.72;;;7.47;58.72
54329;BME280;40710;51.120;13.136;2024-03-17T02:24:08;100100.81;;;7.52;58.51
54329;BME280;40710;51.120;13.136;2024-03-17T02:26:33;100099.31;;;7.44;58.88
54329;BME280;40710;51.120;13.136;2024-03-17T02:28:59;100108.13;;;7.39;58.76
54329;BME280;40710;51.120;13.136;2024-03-17T02:31:24;100105.91;;;7.26;59.47
54329;BME280;40710;51.120;13.136;2024-03-17T02:33:49;100105.47;;;7.10;59.78
54329;BME280;40710;51.120;13.136;2024-03-17T02:36:13;100099.34;;;7.11;59.65
54329;BME280;40710;51.120;13.136;2024-03-17T02:38:41;100105.34;;;7.14;59.98
54329;BME280;40710;51.120;13.136;2024-03-17T02:41:24;100095.75;;;7.76;58.31
54329;BME280;40710;51.120;13.136;2024-03-17T02:43:49;100102.44;;;7.86;57.56
54329;BME280;40710;51.120;13.136;2024-03-17T02:46:16;100105.78;;;7.30;59.32
54329;BME280;40710;51.120;13.136;2024-03-17T02:48:42;100099.19;;;7.48;58.96
54329;BME280;40710;51.120;13.136;2024-03-17T02:51:11;100109.06;;;7.06;59.92
54329;BME280;40710;51.120;13.136;2024-03-17T02:53:37;100091.16;;;7.54;58.48
54329;BME280;40710;51.120;13.136;2024-03-17T02:56:01;100099.22;;;7.47;58.50
54329;BME280;40710;51.120;13.136;2024-03-17T02:58:26;100107.84;;;7.19;58.99
54329;BME280;40710;51.120;13.136;2024-03-17T03:00:50;100106.44;;;7.38;58.24
54329;BME280;40710;51.120;13.136;2024-03-17T03:03:15;100106.44;;;7.38;59.00
54329;BME280;40710;51.120;13.136;2024-03-17T03:05:39;100106.63;;;6.99;59.43
54329;BME280;40710;51.120;13.136;2024-03-17T03:08:05;100108.13;;;7.39;58.60
54329;BME280;40710;51.120;13.136;2024-03-17T03:10:29;100096.59;;;7.47;58.30
54329;BME280;40710;51.120;13.136;2024-03-17T03:12:54;100098.72;;;7.34;58.31
54329;BME280;40710;51.120;13.136;2024-03-17T03:15:18;100095.38;;;7.60;58.24
54329;BME280;40710;51.120;13.136;2024-03-17T03:17:43;100098.53;;;7.71;57.73
54329;BME280;40710;51.120;13.136;2024-03-17T03:20:08;100112.63;;;7.34;58.79
54329;BME280;40710;51.120;13.136;2024-03-17T03:22:32;100100.94;;;7.78;58.16
54329;BME280;40710;51.120;13.136;2024-03-17T03:24:57;100097.69;;;7.99;57.36
54329;BME280;40710;51.120;13.136;2024-03-17T03:27:22;100109.81;;;7.11;58.99
54329;BME280;40710;51.120;13.136;2024-03-17T03:29:48;100102.97;;;7.68;58.46
54329;BME280;40710;51.120;13.136;2024-03-17T03:32:13;100100.47;;;7.94;57.14
54329;BME280;40710;51.120;13.136;2024-03-17T03:34:38;100107.19;;;7.44;58.34
54329;BME280;40710;51.120;13.136;2024-03-17T03:37:03;100095.22;;;7.94;57.34
54329;BME280;40710;51.120;13.136;2024-03-17T03:39:27;100092.78;;;7.88;57.30
54329;BME280;40710;51.120;13.136;2024-03-17T03:41:56;100102.88;;;7.71;57.80
54329;BME280;40710;51.120;13.136;2024-03-17T03:44:21;100092.44;;;7.99;57.44
54329;BME280;40710;51.120;13.136;2024-03-17T03:46:45;100088.50;;;8.14;56.96
54329;BME280;40710;51.120;13.136;2024-03-17T03:49:11;100088.47;;;8.16;56.90
54329;BME280;40710;51.120;13.136;2024-03-17T03:51:35;100106.06;;;7.52;58.60
54329;BME280;40710;51.120;13.136;2024-03-17T03:54:00;100094.88;;;7.77;57.89
54329;BME280;40710;51.120;13.136;2024-03-17T03:56:24;100100.25;;;8.01;57.71
54329;BME280;40710;51.120;13.136;2024-03-17T03:58:50;100108.34;;;7.93;57.74
54329;BME280;40710;51.120;13.136;2024-03-17T04:01:14;100105.59;;;7.68;58.24
54329;BME280;40710;51.120;13.136;2024-03-17T04:03:46;100099.06;;;8.11;57.68
54329;BME280;40710;51.120;13.136;2024-03-17T04:06:11;100100.72;;;8.42;56.50
54329;BME280;40710;51.120;13.136;2024-03-17T04:08:37;100105.72;;;8.49;56.52
54329;BME280;40710;51.120;13.136;2024-03-17T04:11:02;100107.88;;;8.08;57.34
54329;BME280;40710;51.120;13.136;2024-03-17T04:13:28;100106.84;;;8.42;56.81
54329;BME280;40710;51.120;13.136;2024-03-17T04:15:53;100103.13;;;8.49;56.42
54329;BME280;40710;51.120;13.136;2024-03-17T04:18:20;100119.69;;;8.22;57.44
54329;BME280;40710;51.120;13.136;2024-03-17T04:20:45;100132.22;;;7.82;58.77
54329;BME280;40710;51.120;13.136;2024-03-17T04:23:10;100116.13;;;7.96;58.35
54329;BME280;40710;51.120;13.136;2024-03-17T04:25:35;100117.53;;;7.76;58.58
54329;BME280;40710;51.120;13.136;2024-03-17T04:28:00;100125.47;;;7.44;59.14
54329;BME280;40710;51.120;13.136;2024-03-17T04:30:24;100126.97;;;7.21;60.06
54329;BME280;40710;51.120;13.136;2024-03-17T04:32:49;100119.28;;;7.78;59.27
54329;BME280;40710;51.120;13.136;2024-03-17T04:35:14;100117.00;;;7.95;57.82
54329;BME280;40710;51.120;13.136;2024-03-17T04:37:39;100109.78;;;8.60;56.63
54329;BME280;40710;51.120;13.136;2024-03-17T04:40:05;100107.63;;;8.71;56.24
54329;BME280;40710;51.120;13.136;2024-03-17T04:42:33;100105.56;;;8.81;55.78
54329;BME280;40710;51.120;13.136;2024-03-17T04:44:58;100108.25;;;8.52;56.62
54329;BME280;40710;51.120;13.136;2024-03-17T04:47:22;100115.09;;;8.28;57.51
54329;BME280;40710;51.120;13.136;2024-03-17T04:49:47;100112.84;;;8.46;57.73
54329;BME280;40710;51.120;13.136;2024-03-17T04:52:13;100114.22;;;8.58;57.08
54329;BME280;40710;51.120;13.136;2024-03-17T04:54:37;100112.38;;;8.05;57.96
54329;BME280;40710;51.120;13.136;2024-03-17T04:57:02;100130.00;;;7.98;58.67
54329;BME280;40710;51.120;13.136;2024-03-17T04:59:28;100117.59;;;8.61;57.48
54329;BME280;40710;51.120;13.136;2024-03-17T05:01:53;100138.59;;;7.73;59.35
54329;BME280;40710;51.120;13.136;2024-03-17T05:04:18;100138.91;;;7.92;58.76
54329;BME280;40710;51.120;13.136;2024-03-17T05:06:43;100137.13;;;7.93;58.78
54329;BME280;40710;51.120;13.136;2024-03-17T05:09:10;100136.47;;;8.14;58.38
54329;BME280;40710;51.120;13.136;2024-03-17T05:11:37;100150.19;;;7.65;60.15
54329;BME280;40710;51.120;13.136;2024-03-17T05:14:02;100149.00;;;7.75;59.67
54329;BME280;40710;51.120;13.136;2024-03-17T05:16:26;100140.44;;;8.00;58.96
54329;BME280;40710;51.120;13.136;2024-03-17T05:18:53;100151.16;;;7.90;59.43
54329;BME280;40710;51.120;13.136;2024-03-17T05:21:18;100144.28;;;7.88;59.67
54329;BME280;40710;51.120;13.136;2024-03-17T05:23:42;100144.22;;;7.89;59.06
54329;BME280;40710;51.120;13.136;2024-03-17T05:26:07;100139.00;;;8.18;58.10
54329;BME280;40710;51.120;13.136;2024-03-17T05:28:31;100138.16;;;7.89;59.12
54329;BME280;40710;51.120;13.136;2024-03-17T05:30:57;100157.31;;;7.27;61.22
54329;BME280;40710;51.120;13.136;2024-03-17T05:33:21;100157.22;;;7.63;60.30
54329;BME280;40710;51.120;13.136;2024-03-17T05:35:54;100170.00;;;7.08;61.94
54329;BME280;40710;51.120;13.136;2024-03-17T05:38:20;100163.72;;;7.48;61.77
54329;BME280;40710;51.120;13.136;2024-03-17T05:41:05;100171.00;;;7.36;61.84
54329;BME280;40710;51.120;13.136;2024-03-17T05:43:32;100169.03;;;7.45;61.90
54329;BME280;40710;51.120;13.136;2024-03-17T05:46:05;100154.25;;;8.05;59.70
54329;BME280;40710;51.120;13.136;2024-03-17T05:48:30;100162.03;;;7.76;60.30
54329;BME280;40710;51.120;13.136;2024-03-17T05:50:55;100158.13;;;8.76;58.17
54329;BME280;40710;51.120;13.136;2024-03-17T05:53:21;100163.13;;;8.27;59.03
54329;BME280;40710;51.120;13.136;2024-03-17T05:55:46;100165.19;;;8.18;58.92
54329;BME280;40710;51.120;13.136;2024-03-17T05:58:11;100165.69;;;8.59;58.66
54329;BME280;40710;51.120;13.136;2024-03-17T06:00:36;100167.47;;;8.58;57.75
54329;BME280;40710;51.120;13.136;2024-03-17T06:03:01;100169.41;;;7.93;59.07
54329;BME280;40710;51.120;13.136;2024-03-17T06:05:26;100172.25;;;8.16;59.13
54329;BME280;40710;51.120;13.136;2024-03-17T06:07:51;100183.59;;;8.44;58.82
54329;BME280;40710;51.120;13.136;2024-03-17T06:10:15;100173.41;;;8.63;57.91
54329;BME280;40710;51.120;13.136;2024-03-17T06:12:40;100178.06;;;8.82;57.89
54329;BME280;40710;51.120;13.136;2024-03-17T06:15:05;100173.91;;;9.01;56.92
54329;BME280;40710;51.120;13.136;2024-03-17T06:17:30;100180.25;;;8.39;57.54
54329;BME280;40710;51.120;13.136;2024-03-17T06:19:55;100180.41;;;8.89;56.42
54329;BME280;40710;51.120;13.136;2024-03-17T06:22:19;100183.94;;;8.88;56.62
54329;BME280;40710;51.120;13.136;2024-03-17T06:24:44;100186.06;;;8.50;57.79
54329;BME280;40710;51.120;13.136;2024-03-17T06:27:08;100184.41;;;9.01;56.41
54329;BME280;40710;51.120;13.136;2024-03-17T06:29:33;100178.28;;;9.01;56.06
54329;BME280;40710;51.120;13.136;2024-03-17T06:31:58;100173.50;;;9.39;55.39
54329;BME280;40710;51.120;13.136;2024-03-17T06:34:22;100185.03;;;9.08;56.02
54329;BME280;40710;51.120;13.136;2024-03-17T06:36:47;100165.47;;;9.43;55.12
54329;BME280;40710;51.120;13.136;2024-03-17T06:39:12;100181.00;;;9.24;55.22
54329;BME280;40710;51.120;13.136;2024-03-17T06:41:40;100178.66;;;9.42;55.22
54329;BME280;40710;51.120;13.136;2024-03-17T06:44:04;100172.50;;;9.67;54.30
54329;BME280;40710;51.120;13.136;2024-03-17T06:46:31;100176.28;;;9.59;54.85
54329;BME280;40710;51.120;13.136;2024-03-17T06:48:55;100173.13;;;9.97;54.11
54329;BME280;40710;51.120;13.136;2024-03-17T06:51:22;100183.16;;;9.62;54.43
54329;BME280;40710;51.120;13.136;2024-03-17T06:53:47;100172.50;;;10.14;52.88
54329;BME280;40710;51.120;13.136;2024-03-17T06:56:11;100183.25;;;10.08;53.42
54329;BME280;40710;51.120;13.136;2024-03-17T06:58:36;100188.28;;;10.14;53.46
54329;BME280;40710;51.120;13.136;2024-03-17T07:01:01;100181.13;;;9.94;53.80
54329;BME280;40710;51.120;13.136;2024-03-17T07:03:27;100192.28;;;9.77;53.84
54329;BME280;40710;51.120;13.136;2024-03-17T07:05:59;100187.81;;;10.26;53.41
54329;BME280;40710;51.120;13.136;2024-03-17T07:08:27;100187.91;;;10.23;53.14
54329;BME280;40710;51.120;13.136;2024-03-17T07:11:00;100187.22;;;10.18;52.49
54329;BME280;40710;51.120;13.136;2024-03-17T07:13:32;100186.94;;;11.34;50.31
54329;BME280;40710;51.120;13.136;2024-03-17T07:15:57;100189.47;;;10.95;49.91
54329;BME280;40710;51.120;13.136;2024-03-17T07:18:21;100194.41;;;11.23;50.27
54329;BME280;40710;51.120;13.136;2024-03-17T07:20:46;100195.41;;;11.00;50.61
54329;BME280;40710;51.120;13.136;2024-03-17T07:23:12;100195.19;;;11.25;50.39
54329;BME280;40710;51.120;13.136;2024-03-17T07:25:36;100193.44;;;11.05;50.03
54329;BME280;40710;51.120;13.136;2024-03-17T07:28:01;100199.38;;;10.44;51.79
54329;BME280;40710;51.120;13.136;2024-03-17T07:30:26;100185.88;;;11.99;48.85
54329;BME280;40710;51.120;13.136;2024-03-17T07:32:50;100197.41;;;10.93;50.20
54329;BME280;40710;51.120;13.136;2024-03-17T07:35:15;100202.78;;;11.33;49.43
54329;BME280;40710;51.120;13.136;2024-03-17T07:37:39;100203.63;;;11.33;49.99
54329;BME280;40710;51.120;13.136;2024-03-17T07:40:04;100203.84;;;11.08;50.46
54329;BME280;40710;51.120;13.136;2024-03-17T07:42:32;100218.38;;;9.80;53.44
54329;BME280;40710;51.120;13.136;2024-03-17T07:44:57;100212.53;;;10.88;52.04
54329;BME280;40710;51.120;13.136;2024-03-17T07:47:22;100212.63;;;9.94;53.34
54329;BME280;40710;51.120;13.136;2024-03-17T07:49:46;100215.84;;;10.49;52.78
54329;BME280;40710;51.120;13.136;2024-03-17T07:52:11;100210.44;;;10.74;51.67
54329;BME280;40710;51.120;13.136;2024-03-17T07:54:35;100214.75;;;10.08;53.17
54329;BME280;40710;51.120;13.136;2024-03-17T07:57:01;100213.81;;;10.56;52.55
54329;BME280;40710;51.120;13.136;2024-03-17T07:59:25;100217.78;;;10.88;52.27
54329;BME280;40710;51.120;13.136;2024-03-17T08:01:51;100211.06;;;10.81;52.34
54329;BME280;40710;51.120;13.136;2024-03-17T08:04:15;100216.16;;;10.86;51.60
54329;BME280;40710;51.120;13.136;2024-03-17T08:06:40;100214.75;;;10.08;52.26
54329;BME280;40710;51.120;13.136;2024-03-17T08:09:06;100216.25;;;10.38;51.76
54329;BME280;40710;51.120;13.136;2024-03-17T08:11:32;100212.66;;;10.85;50.52
54329;BME280;40710;51.120;13.136;2024-03-17T08:13:56;100217.97;;;10.62;50.34
54329;BME280;40710;51.120;13.136;2024-03-17T08:16:21;100212.59;;;10.19;51.53
54329;BME280;40710;51.120;13.136;2024-03-17T08:18:46;100205.13;;;10.98;49.17
54329;BME280;40710;51.120;13.136;2024-03-17T08:21:10;100193.84;;;11.97;47.35
54329;BME280;40710;51.120;13.136;2024-03-17T08:23:35;100213.63;;;11.05;49.17
54329;BME280;40710;51.120;13.136;2024-03-17T08:26:05;100185.00;;;12.55;46.65
54329;BME280;40710;51.120;13.136;2024-03-17T08:28:30;100173.41;;;14.61;41.32
54329;BME280;40710;51.120;13.136;2024-03-17T08:30:57;100174.75;;;14.05;42.89
54329;BME280;40710;51.120;13.136;2024-03-17T08:33:22;100184.44;;;13.37;43.86
54329;BME280;40710;51.120;13.136;2024-03-17T08:36:04;100199.94;;;12.91;44.45
54329;BME280;40710;51.120;13.136;2024-03-17T08:38:30;100164.09;;;17.38;35.68
54329;BME280;40710;51.120;13.136;2024-03-17T08:40:56;100204.38;;;14.27;41.84
54329;BME280;40710;51.120;13.136;2024-03-17T08:43:22;100190.09;;;14.14;41.74
54329;BME280;40710;51.120;13.136;2024-03-17T08:45:57;100163.88;;;17.54;34.77
54329;BME280;40710;51.120;13.136;2024-03-17T08:48:24;100192.19;;;15.78;39.28
54329;BME280;40710;51.120;13.136;2024-03-17T08:50:52;100141.50;;;21.17;30.55
54329;BME280;40710;51.120;13.136;2024-03-17T08:53:18;100169.09;;;17.94;34.06
54329;BME280;40710;51.120;13.136;2024-03-17T08:55:42;100127.13;;;25.12;25.92
54329;BME280;40710;51.120;13.136;2024-03-17T08:58:10;100123.72;;;23.27;27.02
54329;BME280;40710;51.120;13.136;2024-03-17T09:00:34;100149.63;;;21.57;29.69
54329;BME280;40710;51.120;13.136;2024-03-17T09:03:01;100113.66;;;27.23;22.63
54329;BME280;40710;51.120;13.136;2024-03-17T09:05:25;100137.84;;;24.04;26.45
54329;BME280;40710;51.120;13.136;2024-03-17T09:07:50;100101.84;;;28.28;21.47
54329;BME280;40710;51.120;13.136;2024-03-17T09:10:14;100100.13;;;28.27;21.33
54329;BME280;40710;51.120;13.136;2024-03-17T09:12:39;100119.47;;;25.43;23.71
54329;BME280;40710;51.120;13.136;2024-03-17T09:15:05;100107.78;;;27.03;22.17
54329;BME280;40710;51.120;13.136;2024-03-17T09:17:29;100130.13;;;21.24;27.54
54329;BME280;40710;51.120;13.136;2024-03-17T09:19:54;100170.63;;;16.25;36.50
54329;BME280;40710;51.120;13.136;2024-03-17T09:22:18;100098.22;;;26.00;23.24
54329;BME280;40710;51.120;13.136;2024-03-17T09:24:43;100090.53;;;28.47;21.19
54329;BME280;40710;51.120;13.136;2024-03-17T09:27:08;100085.84;;;28.41;21.04
54329;BME280;40710;51.120;13.136;2024-03-17T09:29:33;100132.47;;;22.51;27.88
54329;BME280;40710;51.120;13.136;2024-03-17T09:31:58;100100.69;;;24.81;24.47
54329;BME280;40710;51.120;13.136;2024-03-17T09:34:23;100152.28;;;18.31;33.05
54329;BME280;40710;51.120;13.136;2024-03-17T09:36:47;100159.56;;;15.47;37.19
54329;BME280;40710;51.120;13.136;2024-03-17T09:39:12;100143.78;;;17.89;35.96
54329;BME280;40710;51.120;13.136;2024-03-17T09:41:38;100134.75;;;18.52;31.28
54329;BME280;40710;51.120;13.136;2024-03-17T09:44:06;100142.91;;;18.01;34.34
54329;BME280;40710;51.120;13.136;2024-03-17T09:46:34;100138.34;;;17.00;34.90
54329;BME280;40710;51.120;13.136;2024-03-17T09:48:58;100115.19;;;19.70;30.68
54329;BME280;40710;51.120;13.136;2024-03-17T09:51:26;100092.75;;;23.70;27.20
54329;BME280;40710;51.120;13.136;2024-03-17T09:53:52;100072.41;;;28.33;20.25
54329;BME280;40710;51.120;13.136;2024-03-17T09:56:18;100126.44;;;20.18;29.68
54329;BME280;40710;51.120;13.136;2024-03-17T09:58:43;100076.66;;;27.57;21.22
54329;BME280;40710;51.120;13.136;2024-03-17T10:01:08;100106.81;;;22.38;26.32
54329;BME280;40710;51.120;13.136;2024-03-17T10:03:51;100134.34;;;18.70;31.09
54329;BME280;40710;51.120;13.136;2024-03-17T10:06:20;100102.53;;;22.26;25.91
54329;BME280;40710;51.120;13.136;2024-03-17T10:11:13;100152.28;;;15.65;35.67
54329;BME280;40710;51.120;13.136;2024-03-17T10:13:39;100150.84;;;15.30;37.19
54329;BME280;40710;51.120;13.136;2024-03-17T10:16:04;100151.81;;;14.37;38.18
54329;BME280;40710;51.120;13.136;2024-03-17T10:18:29;100157.00;;;14.54;38.50
54329;BME280;40710;51.120;13.136;2024-03-17T10:20:53;100150.59;;;15.05;37.24
54329;BME280;40710;51.120;13.136;2024-03-17T10:23:22;100150.66;;;15.34;37.95
54329;BME280;40710;51.120;13.136;2024-03-17T10:25:46;100155.81;;;14.60;39.80
54329;BME280;40710;51.120;13.136;2024-03-17T10:28:13;100157.13;;;13.21;41.67
54329;BME280;40710;51.120;13.136;2024-03-17T10:30:39;100154.81;;;14.63;40.52
54329;BME280;40710;51.120;13.136;2024-03-17T10:33:04;100158.03;;;14.04;40.44
54329;BME280;40710;51.120;13.136;2024-03-17T10:35:35;100144.91;;;15.56;38.17
54329;BME280;40710;51.120;13.136;2024-03-17T10:38:04;100139.38;;;16.16;35.72
54329;BME280;40710;51.120;13.136;2024-03-17T10:40:31;100128.94;;;15.86;36.40
54329;BME280;40710;51.120;13.136;2024-03-17T10:42:59;100135.16;;;15.27;36.42
54329;BME280;40710;51.120;13.136;2024-03-17T10:45:26;100144.38;;;14.75;38.33
54329;BME280;40710;51.120;13.136;2024-03-17T10:47:51;100144.50;;;14.10;39.75
54329;BME280;40710;51.120;13.136;2024-03-17T10:50:21;100099.91;;;19.60;31.86
54329;BME280;40710;51.120;13.136;2024-03-17T10:52:48;100071.88;;;22.30;26.51
54329;BME280;40710;51.120;13.136;2024-03-17T10:55:26;100099.97;;;19.02;31.28
54329;BME280;40710;51.120;13.136;2024-03-17T10:57:53;100064.94;;;23.71;25.62
54329;BME280;40710;51.120;13.136;2024-03-17T11:00:20;100055.53;;;25.10;23.83
54329;BME280;40710;51.120;13.136;2024-03-17T11:02:46;100056.25;;;25.21;22.48
54329;BME280;40710;51.120;13.136;2024-03-17T11:05:25;100057.50;;;24.10;23.14
54329;BME280;40710;51.120;13.136;2024-03-17T11:07:55;100072.47;;;23.57;24.52
54329;BME280;40710;51.120;13.136;2024-03-17T11:10:29;100092.03;;;19.93;28.64
54329;BME280;40710;51.120;13.136;2024-03-17T11:12:55;100114.22;;;17.68;31.83
54329;BME280;40710;51.120;13.136;2024-03-17T11:17:50;100115.97;;;16.23;35.30
54329;BME280;40710;51.120;13.136;2024-03-17T11:20:21;100112.53;;;16.62;34.41
54329;BME280;40710;51.120;13.136;2024-03-17T11:22:49;100096.19;;;17.34;32.74
54329;BME280;40710;51.120;13.136;2024-03-17T11:27:54;100088.34;;;18.20;31.40
54329;BME280;40710;51.120;13.136;2024-03-17T11:39:02;100121.19;;;14.33;39.02
54329;BME280;40710;51.120;13.136;2024-03-17T11:46:39;100067.78;;;19.73;31.13
54329;BME280;40710;51.120;13.136;2024-03-17T11:49:04;100094.09;;;15.92;35.82
54329;BME280;40710;51.120;13.136;2024-03-17T11:51:28;100104.78;;;15.19;36.63
54329;BME280;40710;51.120;13.136;2024-03-17T11:54:00;100085.03;;;16.09;36.10
54329;BME280;40710;51.120;13.136;2024-03-17T11:56:25;100100.09;;;14.93;36.80
54329;BME280;40710;51.120;13.136;2024-03-17T11:59:06;100101.53;;;14.69;37.43
54329;BME280;40710;51.120;13.136;2024-03-17T12:01:33;100105.03;;;15.00;37.53
54329;BME280;40710;51.120;13.136;2024-03-17T12:03:58;100098.63;;;14.27;38.04
54329;BME280;40710;51.120;13.136;2024-03-17T12:06:28;100050.53;;;20.00;30.89
54329;BME280;40710;51.120;13.136;2024-03-17T12:08:52;100040.56;;;20.78;28.55
54329;BME280;40710;51.120;13.136;2024-03-17T12:11:17;100068.59;;;17.74;31.86
54329;BME280;40710;51.120;13.136;2024-03-17T12:13:42;100079.16;;;16.86;33.77
54329;BME280;40710;51.120;13.136;2024-03-17T12:16:12;100086.22;;;15.62;35.35
54329;BME280;40710;51.120;13.136;2024-03-17T12:18:37;100071.25;;;17.74;32.99
54329;BME280;40710;51.120;13.136;2024-03-17T12:21:05;100075.56;;;16.99;32.66
54329;BME280;40710;51.120;13.136;2024-03-17T12:23:29;100083.84;;;16.28;34.63
54329;BME280;40710;51.120;13.136;2024-03-17T12:25:54;100079.84;;;16.35;35.01
54329;BME280;40710;51.120;13.136;2024-03-17T12:28:19;100086.25;;;16.45;34.79
54329;BME280;40710;51.120;13.136;2024-03-17T12:30:44;100067.19;;;15.98;34.97
54329;BME280;40710;51.120;13.136;2024-03-17T12:33:11;100059.53;;;15.94;33.85
54329;BME280;40710;51.120;13.136;2024-03-17T12:35:36;100055.47;;;15.88;34.52
54329;BME280;40710;51.120;13.136;2024-03-17T12:38:01;100051.34;;;16.11;34.26
54329;BME280;40710;51.120;13.136;2024-03-17T12:40:25;100060.78;;;15.59;35.01
54329;BME280;40710;51.120;13.136;2024-03-17T12:42:53;100067.19;;;14.83;35.30
54329;BME280;40710;51.120;13.136;2024-03-17T12:45:22;100052.72;;;16.44;33.52
54329;BME280;40710;51.120;13.136;2024-03-17T12:47:48;100056.00;;;16.48;33.99
54329;BME280;40710;51.120;13.136;2024-03-17T12:50:13;100041.72;;;16.63;33.20
54329;BME280;40710;51.120;13.136;2024-03-17T12:52:52;100051.31;;;16.78;33.26
54329;BME280;40710;51.120;13.136;2024-03-17T12:55:20;100052.13;;;16.66;34.30
54329;BME280;40710;51.120;13.136;2024-03-17T13:00:56;100057.72;;;15.94;34.76
54329;BME280;40710;51.120;13.136;2024-03-17T13:03:27;100039.41;;;17.48;32.44
54329;BME280;40710;51.120;13.136;2024-03-17T13:05:53;100040.53;;;17.20;32.54